Kitwanga, Canada
Current Conditions -  °F | °C
As of 2:00 PM on Saturday 20 Dec 2014 (Local Time) from CYYD Reporting Station
Overcast Overcast  
Wind Chill: 29°   Ceiling: 4000
Heat Index: 36°   Visibility: 20mi
Dew Point: 32°   Wind: 8mph
Humidity: 87%   Direction: 180°S
Pressure: 29.17"   Gusts: NA
Location:  55.1°N, 128.07°W
Report Text: CYYD 202200Z 18007KT 20SM FEW020 BKN040 OVC070 02/00 A2917 RMK SC2SC3AC3 SLP893
Loading
Personal Weather Stations






























Interactive Weather Map New forecast layout! Learn more

10-Day Weather Forecast

Advertisements
Track Severe Weather on mobile